createdAt,value
2019-05-01T00:00:50.867Z,0.00
2019-05-01T00:01:50.843Z,0.00
2019-05-01T00:02:50.829Z,0.00
2019-05-01T00:03:50.823Z,0.00
2019-05-01T00:04:50.810Z,0.00
2019-05-01T00:05:50.815Z,0.00
2019-05-01T00:06:50.785Z,0.00
2019-05-01T00:07:50.779Z,0.00
2019-05-01T00:08:50.762Z,0.00
2019-05-01T00:09:50.759Z,0.00
2019-05-01T00:10:50.754Z,0.00
2019-05-01T00:11:50.733Z,0.00
2019-05-01T00:12:50.721Z,0.00
2019-05-01T00:13:50.711Z,0.00
2019-05-01T00:14:50.694Z,0.00
2019-05-01T00:15:50.703Z,0.00
2019-05-01T00:16:50.673Z,0.00
2019-05-01T00:17:50.670Z,0.00
2019-05-01T00:18:50.650Z,0.00
2019-05-01T00:19:50.644Z,0.00
2019-05-01T00:20:50.642Z,0.00
2019-05-01T00:21:50.622Z,0.00
2019-05-01T00:22:50.607Z,0.00
2019-05-01T00:23:50.602Z,0.00
2019-05-01T00:24:50.587Z,0.00
2019-05-01T00:25:50.591Z,0.00
2019-05-01T00:26:50.562Z,0.00
2019-05-01T00:27:50.560Z,0.00
2019-05-01T00:28:50.539Z,0.00
2019-05-01T00:29:50.538Z,0.00
2019-05-01T00:30:50.536Z,0.00
2019-05-01T00:31:50.510Z,0.00
2019-05-01T00:32:50.494Z,0.00
2019-05-01T00:33:50.488Z,0.00
2019-05-01T00:34:50.481Z,0.00
2019-05-01T00:35:50.484Z,0.00
2019-05-01T00:36:50.450Z,0.00
2019-05-01T00:37:50.444Z,0.00
2019-05-01T00:38:50.429Z,0.00
2019-05-01T00:39:50.424Z,0.00
2019-05-01T00:40:50.423Z,0.00
2019-05-01T00:41:50.399Z,0.00
2019-05-01T00:42:50.384Z,0.00
2019-05-01T00:43:50.378Z,0.00
2019-05-01T00:44:50.361Z,0.00
2019-05-01T00:45:50.369Z,0.00
2019-05-01T00:46:50.344Z,0.00
2019-05-01T00:47:50.336Z,0.00
2019-05-01T00:48:50.316Z,0.00
2019-05-01T00:49:50.309Z,0.00
2019-05-01T00:50:50.318Z,0.00
2019-05-01T00:51:50.291Z,0.00
2019-05-01T00:52:50.286Z,0.00
2019-05-01T00:53:50.270Z,0.00
2019-05-01T00:54:50.249Z,0.00
2019-05-01T00:55:50.269Z,0.00
2019-05-01T00:56:50.229Z,0.00
2019-05-01T00:57:50.225Z,0.00
2019-05-01T00:58:50.208Z,0.00
2019-05-01T00:59:50.199Z,0.00
2019-05-01T01:00:50.200Z,0.00
2019-05-01T01:01:50.177Z,0.00
2019-05-01T01:02:50.161Z,0.00
2019-05-01T01:03:50.155Z,0.00
2019-05-01T01:04:50.142Z,0.00
2019-05-01T01:05:50.145Z,0.00
2019-05-01T01:06:50.117Z,0.00
2019-05-01T01:07:50.116Z,0.00
2019-05-01T01:08:50.096Z,0.00
2019-05-01T01:09:50.092Z,0.00
2019-05-01T01:10:50.086Z,0.00
2019-05-01T01:11:50.067Z,0.00
2019-05-01T01:12:50.050Z,0.00
2019-05-01T01:13:50.044Z,0.00
2019-05-01T01:14:50.028Z,0.00
2019-05-01T01:15:50.034Z,0.00
2019-05-01T01:16:50.006Z,0.00
2019-05-01T01:17:50.001Z,0.00
2019-05-01T01:18:49.983Z,0.00
2019-05-01T01:19:49.977Z,0.00
2019-05-01T01:20:49.963Z,0.00
2019-05-01T01:21:49.970Z,0.00
2019-05-01T01:22:49.938Z,0.00
2019-05-01T01:23:49.935Z,0.00
2019-05-01T01:24:49.925Z,0.00
2019-05-01T01:25:49.910Z,0.00
2019-05-01T01:26:49.912Z,0.00
2019-05-01T01:27:49.930Z,0.00
2019-05-01T01:28:49.873Z,0.00
2019-05-01T01:29:49.871Z,0.00
2019-05-01T01:30:56.211Z,0.00
2019-05-01T01:31:50.859Z,0.00
2019-05-01T01:32:49.829Z,0.00
2019-05-01T01:33:49.821Z,0.00
2019-05-01T01:34:49.806Z,0.00
2019-05-01T01:35:49.799Z,0.00
2019-05-01T01:36:49.796Z,0.00
2019-05-01T01:37:49.775Z,0.00
2019-05-01T01:38:49.762Z,0.00
2019-05-01T01:39:49.762Z,0.00
2019-05-01T01:40:49.738Z,0.00
2019-05-01T01:41:49.744Z,0.00
2019-05-01T01:42:49.715Z,0.00
2019-05-01T01:43:49.711Z,0.00
2019-05-01T01:44:49.692Z,0.00
2019-05-01T01:45:49.686Z,0.00
2019-05-01T01:46:49.685Z,0.00
2019-05-01T01:47:49.664Z,0.00
2019-05-01T01:48:49.652Z,0.00
2019-05-01T01:49:49.648Z,0.00
2019-05-01T01:50:49.633Z,0.00
2019-05-01T01:51:49.635Z,0.00
2019-05-01T01:52:49.606Z,0.00
2019-05-01T01:53:49.597Z,0.00
2019-05-01T01:54:49.584Z,0.00
2019-05-01T01:55:49.575Z,0.00
2019-05-01T01:56:49.576Z,0.00
2019-05-01T01:57:49.553Z,0.00
2019-05-01T01:58:49.537Z,0.00
2019-05-01T01:59:49.533Z,0.00
2019-05-01T02:00:49.526Z,0.00
2019-05-01T02:01:49.533Z,0.00
2019-05-01T02:02:49.493Z,0.00
2019-05-01T02:03:49.486Z,0.00
2019-05-01T02:04:49.476Z,0.00
2019-05-01T02:05:49.467Z,0.00
2019-05-01T02:06:49.463Z,0.00
2019-05-01T02:07:49.442Z,0.00
2019-05-01T02:08:56.366Z,0.00
2019-05-01T02:09:50.422Z,0.00
2019-05-01T02:10:49.406Z,0.00
2019-05-01T02:11:49.411Z,0.00
2019-05-01T02:12:49.388Z,0.00
2019-05-01T02:13:49.374Z,0.00
2019-05-01T02:14:49.359Z,0.00
2019-05-01T02:15:49.354Z,0.00
2019-05-01T02:16:49.351Z,0.00
2019-05-01T02:17:49.331Z,0.00
2019-05-01T02:18:49.316Z,0.00
2019-05-01T02:19:49.311Z,0.00
2019-05-01T02:20:49.292Z,0.00
2019-05-01T02:21:49.301Z,0.00
2019-05-01T02:22:49.273Z,0.00
2019-05-01T02:23:49.267Z,0.00
2019-05-01T02:24:49.249Z,0.00
2019-05-01T02:25:49.242Z,0.00
2019-05-01T02:26:49.240Z,0.00
2019-05-01T02:27:49.218Z,0.00
2019-05-01T02:28:49.203Z,0.00
2019-05-01T02:29:49.204Z,0.00
2019-05-01T02:30:49.182Z,0.00
2019-05-01T02:31:49.194Z,0.00
2019-05-01T02:32:49.164Z,0.00
2019-05-01T02:33:49.158Z,0.00
2019-05-01T02:34:49.140Z,0.00
2019-05-01T02:35:49.132Z,0.00
2019-05-01T02:36:49.132Z,0.00
2019-05-01T02:37:49.111Z,0.00
2019-05-01T02:38:49.097Z,0.00
2019-05-01T02:39:49.087Z,0.00
2019-05-01T02:40:49.076Z,0.00
2019-05-01T02:41:49.088Z,0.00
2019-05-01T02:42:49.049Z,0.00
2019-05-01T02:43:49.042Z,0.00
2019-05-01T02:44:49.029Z,0.00
2019-05-01T02:45:49.025Z,0.00
2019-05-01T02:46:49.025Z,0.00
2019-05-01T02:47:49.013Z,0.00
2019-05-01T02:48:52.527Z,0.00
2019-05-01T02:49:48.975Z,0.00
2019-05-01T02:50:48.960Z,0.00
2019-05-01T02:51:48.959Z,0.00
2019-05-01T02:52:48.957Z,0.00
2019-05-01T02:53:48.931Z,0.00
2019-05-01T02:54:48.928Z,0.00
2019-05-01T02:55:48.912Z,0.00
2019-05-01T02:56:48.896Z,0.00
2019-05-01T02:57:48.908Z,0.00
2019-05-01T02:58:48.874Z,0.00
2019-05-01T02:59:48.865Z,0.00
2019-05-01T03:00:48.850Z,0.00
2019-05-01T03:01:48.849Z,0.00
2019-05-01T03:02:48.841Z,0.00
2019-05-01T03:03:48.825Z,0.00
2019-05-01T03:04:48.805Z,0.00
2019-05-01T03:05:48.805Z,0.00
2019-05-01T03:06:48.783Z,0.00
2019-05-01T03:07:48.798Z,0.00
2019-05-01T03:08:48.761Z,0.00
2019-05-01T03:09:48.785Z,0.00
2019-05-01T03:10:48.741Z,0.00
2019-05-01T03:11:48.732Z,0.00
2019-05-01T03:12:48.735Z,0.00
2019-05-01T03:13:48.713Z,0.00
2019-05-01T03:14:48.699Z,0.00
2019-05-01T03:15:48.689Z,0.00
2019-05-01T03:16:48.708Z,0.00
2019-05-01T03:17:48.683Z,0.00
2019-05-01T03:18:48.651Z,0.00
2019-05-01T03:19:48.644Z,0.00
2019-05-01T03:20:48.636Z,0.00
2019-05-01T03:21:48.625Z,0.00
2019-05-01T03:22:48.626Z,0.00
2019-05-01T03:23:48.601Z,0.00
2019-05-01T03:24:48.589Z,0.00
2019-05-01T03:25:48.581Z,0.00
2019-05-01T03:26:48.568Z,0.00
2019-05-01T03:27:48.574Z,0.00
2019-05-01T03:28:48.542Z,4.00
2019-05-01T03:29:48.532Z,4.00
2019-05-01T03:30:48.519Z,4.00
2019-05-01T03:32:14.105Z,0.00
2019-05-01T03:32:49.511Z,4.00
2019-05-01T03:33:48.511Z,4.00
2019-05-01T03:34:52.568Z,4.00
2019-05-01T03:35:48.468Z,4.00
2019-05-01T03:36:48.452Z,8.00
2019-05-01T03:37:48.458Z,8.00
2019-05-01T03:38:48.430Z,8.00
2019-05-01T03:39:48.425Z,12.00
2019-05-01T03:40:48.412Z,12.00
2019-05-01T03:41:48.414Z,12.00
2019-05-01T03:42:48.407Z,16.00
2019-05-01T03:43:48.385Z,16.00
2019-05-01T03:44:48.368Z,20.00
2019-05-01T03:45:48.368Z,16.00
2019-05-01T03:46:48.342Z,20.00
2019-05-01T03:47:48.352Z,24.00
2019-05-01T03:48:48.320Z,24.00
2019-05-01T03:49:48.318Z,28.00
2019-05-01T03:50:48.297Z,32.00
2019-05-01T03:51:48.296Z,36.00
2019-05-01T03:52:48.293Z,40.00
2019-05-01T03:53:48.268Z,44.00
2019-05-01T03:54:48.260Z,48.00
2019-05-01T03:55:48.247Z,48.00
2019-05-01T03:56:48.232Z,56.00
2019-05-01T03:57:48.244Z,60.00
2019-05-01T03:58:48.213Z,68.00
2019-05-01T03:59:48.201Z,68.00
2019-05-01T04:00:48.193Z,76.00
2019-05-01T04:01:48.182Z,88.00
2019-05-01T04:02:48.179Z,100.00
2019-05-01T04:03:48.159Z,112.00
2019-05-01T04:04:48.147Z,116.00
2019-05-01T04:05:48.144Z,120.00
2019-05-01T04:06:48.125Z,132.00
2019-05-01T04:07:48.136Z,144.00
2019-05-01T04:08:48.112Z,160.00
2019-05-01T04:09:48.101Z,172.00
2019-05-01T04:10:48.078Z,184.00
2019-05-01T04:11:48.074Z,204.00
2019-05-01T04:12:48.070Z,232.00
2019-05-01T04:13:48.062Z,240.00
2019-05-01T04:14:48.033Z,244.00
2019-05-01T04:15:48.025Z,248.00
2019-05-01T04:16:48.014Z,260.00
2019-05-01T04:17:48.005Z,276.00
2019-05-01T04:18:48.009Z,288.00
2019-05-01T04:19:47.981Z,312.00
2019-05-01T04:20:47.967Z,316.00
2019-05-01T04:21:47.964Z,316.00
2019-05-01T04:22:47.944Z,328.00
2019-05-01T04:23:47.951Z,348.00
2019-05-01T04:24:47.923Z,360.00
2019-05-01T04:25:47.918Z,372.00
2019-05-01T04:26:47.901Z,384.00
2019-05-01T04:27:47.892Z,404.00
2019-05-01T04:28:47.893Z,420.00
2019-05-01T04:29:47.884Z,436.00
2019-05-01T04:30:47.855Z,440.00
2019-05-01T04:31:47.854Z,460.00
2019-05-01T04:32:52.646Z,476.00
2019-05-01T04:33:48.844Z,500.00
2019-05-01T04:34:47.816Z,532.00
2019-05-01T04:35:47.806Z,560.00
2019-05-01T04:36:47.791Z,560.00
2019-05-01T04:37:47.786Z,572.00
2019-05-01T04:38:47.780Z,596.00
2019-05-01T04:39:47.761Z,632.00
2019-05-01T04:40:47.755Z,692.00
2019-05-01T04:41:47.739Z,740.00
2019-05-01T04:42:47.727Z,760.00
2019-05-01T04:43:47.729Z,760.00
2019-05-01T04:44:47.704Z,764.00
2019-05-01T04:45:47.696Z,776.00
2019-05-01T04:46:47.686Z,788.00
2019-05-01T04:47:47.674Z,788.00
2019-05-01T04:48:47.670Z,816.00
2019-05-01T04:49:47.652Z,880.00
2019-05-01T04:50:47.635Z,908.00
2019-05-01T04:51:47.641Z,916.00
2019-05-01T04:52:47.611Z,932.00
2019-05-01T04:53:47.619Z,976.00
2019-05-01T04:54:47.591Z,1016.00
2019-05-01T04:55:47.583Z,1052.00
2019-05-01T04:56:47.568Z,1084.00
2019-05-01T04:57:47.564Z,1084.00
2019-05-01T04:58:47.567Z,1080.00
2019-05-01T04:59:47.539Z,1084.00
2019-05-01T05:00:47.522Z,1116.00
2019-05-01T05:01:47.518Z,1204.00
2019-05-01T05:02:47.501Z,1288.00
2019-05-01T05:03:47.508Z,1340.00
2019-05-01T05:04:47.478Z,1352.00
2019-05-01T05:05:47.472Z,1372.00
2019-05-01T05:06:47.455Z,1396.00
2019-05-01T05:07:47.451Z,1412.00
2019-05-01T05:08:47.477Z,1472.00
2019-05-01T05:09:47.430Z,1528.00
2019-05-01T05:10:47.411Z,1532.00
2019-05-01T05:11:47.404Z,1492.00
2019-05-01T05:12:47.392Z,1480.00
2019-05-01T05:13:47.400Z,1488.00
2019-05-01T05:14:47.370Z,1476.00
2019-05-01T05:15:47.375Z,1508.00
2019-05-01T05:16:47.344Z,1556.00
2019-05-01T05:17:47.345Z,1632.00
2019-05-01T05:18:47.465Z,1732.00
2019-05-01T05:19:47.348Z,1784.00
2019-05-01T05:20:47.340Z,1768.00
2019-05-01T05:21:47.327Z,1772.00
2019-05-01T05:22:47.321Z,1728.00
2019-05-01T05:23:47.323Z,1688.00
2019-05-01T05:24:47.256Z,1680.00
2019-05-01T05:25:47.252Z,1788.00
2019-05-01T05:26:47.233Z,1984.00
2019-05-01T05:27:47.227Z,2112.00
2019-05-01T05:28:47.226Z,2184.00
2019-05-01T05:29:47.204Z,2236.00
2019-05-01T05:30:47.188Z,2284.00
2019-05-01T05:31:47.189Z,2324.00
2019-05-01T05:32:47.167Z,2416.00
2019-05-01T05:33:47.173Z,2452.00
2019-05-01T05:34:47.143Z,2484.00
2019-05-01T05:35:47.137Z,2504.00
2019-05-01T05:36:47.123Z,2524.00
2019-05-01T05:37:47.118Z,2520.00
2019-05-01T05:38:47.121Z,2540.00
2019-05-01T05:39:47.092Z,2608.00
2019-05-01T05:40:47.077Z,2676.00
2019-05-01T05:41:47.075Z,2700.00
2019-05-01T05:42:47.058Z,2716.00
2019-05-01T05:43:47.313Z,2756.00
2019-05-01T05:44:47.033Z,2816.00
2019-05-01T05:45:47.025Z,2876.00
2019-05-01T05:46:47.011Z,2904.00
2019-05-01T05:47:47.005Z,2916.00
2019-05-01T05:48:46.992Z,2976.00
2019-05-01T05:49:47.002Z,3052.00
2019-05-01T05:50:46.965Z,3100.00
2019-05-01T05:51:46.958Z,3164.00
2019-05-01T05:52:46.943Z,3276.00
2019-05-01T05:53:46.936Z,3384.00
2019-05-01T05:54:46.935Z,3480.00
2019-05-01T05:55:46.913Z,3688.00
2019-05-01T05:56:46.898Z,3848.00
2019-05-01T05:57:46.891Z,3868.00
2019-05-01T05:58:46.881Z,3724.00
2019-05-01T05:59:46.892Z,3540.00
2019-05-01T06:00:46.858Z,3384.00
2019-05-01T06:01:46.847Z,3184.00
2019-05-01T06:02:46.831Z,3040.00
2019-05-01T06:03:46.828Z,2944.00
2019-05-01T06:04:46.821Z,2940.00
2019-05-01T06:05:46.810Z,3012.00
2019-05-01T06:06:46.788Z,3084.00
2019-05-01T06:07:46.779Z,3136.00
2019-05-01T06:08:46.767Z,3220.00
2019-05-01T06:09:48.564Z,3284.00
2019-05-01T06:10:46.743Z,3312.00
2019-05-01T06:11:46.735Z,3364.00
2019-05-01T06:12:48.569Z,3416.00
2019-05-01T06:13:46.713Z,3424.00
2019-05-01T06:14:46.714Z,3464.00
2019-05-01T06:15:49.068Z,3620.00
2019-05-01T06:16:51.496Z,3740.00
2019-05-01T06:17:47.670Z,3720.00
2019-05-01T06:18:46.655Z,3736.00
2019-05-01T06:19:49.712Z,3760.00
2019-05-01T06:20:46.634Z,3860.00
2019-05-01T06:21:46.627Z,3904.00
2019-05-01T06:22:46.614Z,3892.00
2019-05-01T06:23:46.611Z,3920.00
2019-05-01T06:24:46.605Z,3992.00
2019-05-01T06:25:46.587Z,4020.00
2019-05-01T06:26:46.569Z,4032.00
2019-05-01T06:27:49.323Z,4136.00
2019-05-01T06:28:46.546Z,4272.00
2019-05-01T06:29:46.554Z,4324.00
2019-05-01T06:30:47.145Z,4400.00
2019-05-01T06:31:46.518Z,4580.00
2019-05-01T06:32:46.504Z,4756.00
2019-05-01T06:33:48.670Z,4892.00
2019-05-01T06:34:47.493Z,5012.00
2019-05-01T06:35:46.474Z,5136.00
2019-05-01T06:36:49.713Z,5204.00
2019-05-01T06:37:46.457Z,5292.00
2019-05-01T06:38:46.437Z,5432.00
2019-05-01T06:39:48.153Z,5520.00
2019-05-01T06:40:46.415Z,5500.00
2019-05-01T06:41:46.408Z,5472.00
2019-05-01T06:42:50.107Z,5376.00
2019-05-01T06:43:46.384Z,5336.00
2019-05-01T06:44:46.382Z,5412.00
2019-05-01T06:45:46.863Z,5476.00
2019-05-01T06:46:46.345Z,5524.00
2019-05-01T06:47:46.337Z,5704.00
2019-05-01T06:48:48.824Z,6048.00
2019-05-01T06:49:47.368Z,6500.00
2019-05-01T06:50:46.298Z,6892.00
2019-05-01T06:51:47.941Z,7272.00
2019-05-01T06:52:47.274Z,7568.00
2019-05-01T06:53:46.270Z,7644.00
2019-05-01T06:54:47.737Z,7636.00
2019-05-01T06:55:47.244Z,7760.00
2019-05-01T06:56:46.233Z,7964.00
2019-05-01T06:57:46.227Z,8012.00
2019-05-01T06:58:46.206Z,8200.00
2019-05-01T06:59:46.214Z,8648.00
2019-05-01T07:00:46.194Z,9008.00
2019-05-01T07:01:46.189Z,9352.00
2019-05-01T07:02:46.160Z,9716.00
2019-05-01T07:04:02.884Z,9732.00
2019-05-01T07:04:47.166Z,9384.00
2019-05-01T07:05:49.000Z,9024.00
2019-05-01T07:06:47.113Z,9056.00
2019-05-01T07:07:48.232Z,9156.00
2019-05-01T07:08:47.093Z,9656.00
2019-05-01T07:09:49.367Z,9584.00
2019-05-01T07:10:46.086Z,9856.00
2019-05-01T07:11:47.481Z,9976.00
2019-05-01T07:12:47.049Z,9856.00
2019-05-01T07:13:46.047Z,10100.00
2019-05-01T07:14:47.039Z,10104.00
2019-05-01T07:15:46.032Z,10640.00
2019-05-01T07:16:46.004Z,10500.00
2019-05-01T07:17:47.924Z,10388.00
2019-05-01T07:18:45.982Z,10376.00
2019-05-01T07:19:45.976Z,11492.00
2019-05-01T07:20:47.391Z,10052.00
2019-05-01T07:21:46.952Z,9984.00
2019-05-01T07:22:45.938Z,9784.00
2019-05-01T07:23:47.782Z,9660.00
2019-05-01T07:24:49.059Z,11364.00
2019-05-01T07:25:45.924Z,10596.00
2019-05-01T07:26:48.138Z,12044.00
2019-05-01T07:27:45.886Z,12196.00
2019-05-01T07:28:45.872Z,12568.00
2019-05-01T07:29:46.656Z,12848.00
2019-05-01T07:30:49.874Z,12880.00
2019-05-01T07:31:46.834Z,13988.00
2019-05-01T07:32:45.832Z,15104.00
2019-05-01T07:33:47.153Z,15136.00
2019-05-01T07:34:48.930Z,14752.00
2019-05-01T07:35:45.806Z,12488.00
2019-05-01T07:36:50.130Z,14624.00
2019-05-01T07:37:46.773Z,14624.00
2019-05-01T07:38:45.764Z,14912.00
2019-05-01T07:39:49.800Z,15392.00
2019-05-01T07:40:46.754Z,15168.00
2019-05-01T07:41:45.725Z,14720.00
2019-05-01T07:42:48.220Z,13984.00
2019-05-01T07:43:45.702Z,14096.00
2019-05-01T07:44:45.695Z,14728.00
2019-05-01T07:45:45.694Z,16096.00
2019-05-01T07:46:48.960Z,16448.00
2019-05-01T07:47:46.659Z,14564.00
2019-05-01T07:48:45.656Z,15008.00
2019-05-01T07:49:47.859Z,15616.00
2019-05-01T07:50:46.641Z,14444.00
2019-05-01T07:51:45.613Z,13392.00
2019-05-01T07:52:47.728Z,14076.00
2019-05-01T07:53:46.589Z,12248.00
2019-05-01T07:54:47.113Z,11868.00
2019-05-01T07:55:48.567Z,12288.00
2019-05-01T07:56:45.560Z,12976.00
2019-05-01T07:57:45.544Z,13804.00
2019-05-01T07:58:47.508Z,15872.00
2019-05-01T07:59:46.519Z,15904.00
2019-05-01T08:00:45.531Z,12884.00
2019-05-01T08:01:45.499Z,13728.00
2019-05-01T08:02:45.492Z,15136.00
2019-05-01T08:03:45.476Z,14116.00
2019-05-01T08:04:45.476Z,13940.00
2019-05-01T08:05:46.754Z,15744.00
2019-05-01T08:06:45.446Z,15424.00
2019-05-01T08:07:45.431Z,13700.00
2019-05-01T08:08:45.425Z,13092.00
2019-05-01T08:09:45.851Z,13128.00
2019-05-01T08:10:45.415Z,12720.00
2019-05-01T08:11:45.582Z,14112.00
2019-05-01T08:12:45.398Z,17248.00
2019-05-01T08:13:45.364Z,17280.00
2019-05-01T08:14:47.726Z,17248.00
2019-05-01T08:15:46.358Z,15904.00
2019-05-01T08:16:45.334Z,15132.00
2019-05-01T08:17:48.852Z,13508.00
2019-05-01T08:18:46.311Z,18240.00
2019-05-01T08:19:45.299Z,16768.00
2019-05-01T08:20:45.775Z,18944.00
2019-05-01T08:21:45.279Z,16256.00
2019-05-01T08:22:45.276Z,15808.00
2019-05-01T08:23:47.166Z,21696.00
2019-05-01T08:24:45.246Z,22208.00
2019-05-01T08:25:45.258Z,25184.00
2019-05-01T08:26:45.940Z,19552.00
2019-05-01T08:27:45.285Z,29216.00
2019-05-01T08:28:45.203Z,26496.00
2019-05-01T08:29:45.188Z,25696.00
2019-05-01T08:30:48.036Z,24416.00
2019-05-01T08:31:46.182Z,25056.00
2019-05-01T08:32:45.161Z,25056.00
2019-05-01T08:33:49.825Z,25344.00
2019-05-01T08:34:49.045Z,25728.00
2019-05-01T08:35:45.120Z,26016.00
2019-05-01T08:36:47.338Z,24352.00
2019-05-01T08:37:45.108Z,21440.00
2019-05-01T08:38:45.093Z,21120.00
2019-05-01T08:39:45.954Z,22816.00
2019-05-01T08:40:45.073Z,22048.00
2019-05-01T08:41:45.068Z,21600.00
2019-05-01T08:42:45.048Z,21824.00
2019-05-01T08:43:48.886Z,20032.00
2019-05-01T08:44:46.019Z,20416.00
2019-05-01T08:45:45.024Z,19904.00
2019-05-01T08:46:46.781Z,19712.00
2019-05-01T08:47:45.996Z,20160.00
2019-05-01T08:48:44.977Z,17888.00
2019-05-01T08:49:49.515Z,18464.00
2019-05-01T08:50:45.952Z,17376.00
2019-05-01T08:51:44.964Z,15644.00
2019-05-01T08:52:47.448Z,19488.00
2019-05-01T08:53:44.926Z,19456.00
2019-05-01T08:54:44.914Z,19200.00
2019-05-01T08:55:46.920Z,19520.00
2019-05-01T08:56:44.910Z,19936.00
2019-05-01T08:57:44.881Z,18976.00
2019-05-01T08:58:49.318Z,20512.00
2019-05-01T08:59:45.859Z,21152.00
2019-05-01T09:00:44.848Z,19872.00
2019-05-01T09:01:45.863Z,18752.00
2019-05-01T09:02:45.818Z,17408.00
2019-05-01T09:03:44.816Z,17312.00
2019-05-01T09:04:44.799Z,21440.00
2019-05-01T09:05:44.794Z,18464.00
2019-05-01T09:06:45.257Z,18016.00
2019-05-01T09:07:44.903Z,21376.00
2019-05-01T09:08:44.755Z,21664.00
2019-05-01T09:09:45.862Z,22016.00
2019-05-01T09:10:44.731Z,20704.00
2019-05-01T09:11:44.740Z,20992.00
2019-05-01T09:12:46.800Z,22720.00
2019-05-01T09:13:44.703Z,23104.00
2019-05-01T09:14:44.686Z,23264.00
2019-05-01T09:15:48.266Z,22176.00
2019-05-01T09:16:44.679Z,19872.00
2019-05-01T09:17:44.659Z,20608.00
2019-05-01T09:18:44.645Z,18816.00
2019-05-01T09:19:44.642Z,19584.00
2019-05-01T09:20:44.622Z,18848.00
2019-05-01T09:21:44.628Z,22432.00
2019-05-01T09:22:44.598Z,22592.00
2019-05-01T09:23:46.278Z,22464.00
2019-05-01T09:24:45.575Z,21440.00
2019-05-01T09:25:44.576Z,22688.00
2019-05-01T09:26:45.265Z,23168.00
2019-05-01T09:27:45.546Z,22144.00
2019-05-01T09:28:44.530Z,20544.00
2019-05-01T09:29:46.952Z,24128.00
2019-05-01T09:30:45.507Z,28288.00
2019-05-01T09:31:44.519Z,29024.00
2019-05-01T09:32:45.901Z,24224.00
2019-05-01T09:33:45.480Z,19328.00
2019-05-01T09:34:44.468Z,20672.00
2019-05-01T09:35:45.220Z,38624.00
2019-05-01T09:36:44.463Z,40000.00
2019-05-01T09:37:44.435Z,40032.00
2019-05-01T09:38:44.420Z,39008.00
2019-05-01T09:39:47.170Z,36512.00
2019-05-01T09:40:44.401Z,20320.00
2019-05-01T09:41:47.584Z,24448.00
2019-05-01T09:42:44.376Z,23040.00
2019-05-01T09:43:44.370Z,37344.00
2019-05-01T09:44:44.357Z,43872.00
2019-05-01T09:45:44.348Z,44480.00
2019-05-01T09:46:44.372Z,44896.00
2019-05-01T09:47:44.326Z,43264.00
2019-05-01T09:48:44.309Z,43456.00
2019-05-01T09:49:44.304Z,43104.00
2019-05-01T09:50:44.288Z,28192.00
2019-05-01T09:51:47.652Z,48096.00
2019-05-01T09:52:44.288Z,48128.00
2019-05-01T09:53:44.269Z,22432.00
2019-05-01T09:54:46.708Z,34656.00
2019-05-01T09:55:44.240Z,47488.00
2019-05-01T09:56:44.232Z,44000.00
2019-05-01T09:57:44.234Z,22272.00
2019-05-01T09:58:44.203Z,46496.00
2019-05-01T09:59:44.201Z,49024.00
2019-05-01T10:00:44.180Z,47488.00
2019-05-01T10:01:44.175Z,48352.00
2019-05-01T10:02:44.172Z,49312.00
2019-05-01T10:03:44.990Z,48736.00
2019-05-01T10:04:44.142Z,50528.00
2019-05-01T10:05:44.299Z,52192.00
2019-05-01T10:06:47.744Z,38496.00
2019-05-01T10:07:45.122Z,51168.00
2019-05-01T10:08:44.093Z,50656.00
2019-05-01T10:09:47.217Z,51200.00
2019-05-01T10:10:45.069Z,53120.00
2019-05-01T10:11:44.078Z,50496.00
2019-05-01T10:12:47.025Z,53248.00
2019-05-01T10:13:44.042Z,54400.00
2019-05-01T10:14:44.029Z,54336.00
2019-05-01T10:15:44.017Z,54272.00
2019-05-01T10:16:44.013Z,53440.00
2019-05-01T10:17:44.012Z,52288.00
2019-05-01T10:18:43.978Z,52416.00
2019-05-01T10:19:43.972Z,53824.00
2019-05-01T10:20:43.956Z,55200.00
2019-05-01T10:21:43.960Z,54464.00
2019-05-01T10:22:43.951Z,53056.00
2019-05-01T10:23:47.026Z,53920.00
2019-05-01T10:24:44.915Z,55072.00
2019-05-01T10:25:47.934Z,54976.00
2019-05-01T10:26:44.907Z,53376.00
2019-05-01T10:27:43.896Z,52672.00
2019-05-01T10:28:45.213Z,54016.00
2019-05-01T10:29:44.857Z,54688.00
2019-05-01T10:30:43.925Z,53984.00
2019-05-01T10:31:46.623Z,55392.00
2019-05-01T10:32:43.835Z,55712.00
2019-05-01T10:33:43.816Z,54048.00
2019-05-01T10:34:44.616Z,54528.00
2019-05-01T10:35:43.795Z,55968.00
2019-05-01T10:36:43.781Z,56096.00
2019-05-01T10:37:43.788Z,57728.00
2019-05-01T10:38:44.963Z,55776.00
2019-05-01T10:39:43.753Z,55744.00
2019-05-01T10:40:43.735Z,58848.00
2019-05-01T10:41:46.320Z,58464.00
2019-05-01T10:42:43.748Z,58784.00
2019-05-01T10:43:43.708Z,62208.00
2019-05-01T10:44:43.692Z,63328.00
2019-05-01T10:45:43.693Z,63328.00
2019-05-01T10:46:43.671Z,62336.00
2019-05-01T10:47:43.665Z,57952.00
2019-05-01T10:48:43.670Z,57984.00
2019-05-01T10:49:43.643Z,59360.00
2019-05-01T10:50:43.630Z,64768.00
2019-05-01T10:51:43.622Z,64896.00
2019-05-01T10:52:43.605Z,63424.00
2019-05-01T10:53:43.616Z,64448.00
2019-05-01T10:54:46.433Z,65408.00
2019-05-01T10:55:43.578Z,63968.00
2019-05-01T10:56:43.562Z,64096.00
2019-05-01T10:57:43.561Z,63776.00
2019-05-01T10:58:43.556Z,64800.00
2019-05-01T10:59:43.543Z,64160.00
2019-05-01T11:00:43.521Z,64704.00
2019-05-01T11:01:43.513Z,66592.00
2019-05-01T11:02:43.504Z,66912.00
2019-05-01T11:03:43.510Z,65344.00
2019-05-01T11:04:43.478Z,65056.00
2019-05-01T11:05:55.278Z,65184.00
2019-05-01T11:06:44.458Z,66528.00
2019-05-01T11:07:43.452Z,69728.00
2019-05-01T11:08:43.450Z,70560.00
2019-05-01T11:09:43.429Z,66272.00
2019-05-01T11:10:43.412Z,67296.00
2019-05-01T11:11:43.407Z,68768.00
2019-05-01T11:12:43.395Z,69152.00
2019-05-01T11:13:43.398Z,70304.00
2019-05-01T11:14:43.370Z,69664.00
2019-05-01T11:15:43.389Z,68512.00
2019-05-01T11:16:43.348Z,68480.00
2019-05-01T11:17:43.341Z,68992.00
2019-05-01T11:18:43.343Z,71744.00
2019-05-01T11:19:43.325Z,73056.00
2019-05-01T11:20:43.309Z,71648.00
2019-05-01T11:21:43.299Z,70816.00
2019-05-01T11:22:43.285Z,71424.00
2019-05-01T11:23:43.300Z,73376.00
2019-05-01T11:24:43.263Z,73088.00
2019-05-01T11:25:44.717Z,73824.00
2019-05-01T11:26:43.241Z,72864.00
2019-05-01T11:27:43.235Z,72448.00
2019-05-01T11:28:43.247Z,74368.00
2019-05-01T11:29:43.213Z,72896.00
2019-05-01T11:30:43.198Z,73888.00
2019-05-01T11:31:43.197Z,74912.00
2019-05-01T11:32:43.177Z,71584.00
2019-05-01T11:33:43.170Z,71392.00
2019-05-01T11:34:43.170Z,73088.00
2019-05-01T11:35:43.152Z,74432.00
2019-05-01T11:36:43.135Z,75680.00
2019-05-01T11:37:43.131Z,74336.00
2019-05-01T11:38:43.115Z,69088.00
2019-05-01T11:39:43.119Z,66592.00
2019-05-01T11:40:43.090Z,71936.00
2019-05-01T11:41:43.085Z,77056.00
2019-05-01T11:42:43.072Z,73792.00
2019-05-01T11:43:43.069Z,71264.00
2019-05-01T11:44:43.061Z,68096.00
2019-05-01T11:45:43.041Z,68000.00
2019-05-01T11:46:43.025Z,71648.00
2019-05-01T11:47:43.018Z,72832.00
2019-05-01T11:48:44.640Z,74208.00
2019-05-01T11:49:43.012Z,73600.00
2019-05-01T11:50:42.982Z,72928.00
2019-05-01T11:51:42.975Z,73152.00
2019-05-01T11:52:42.960Z,40224.00
2019-05-01T11:53:42.953Z,76160.00
2019-05-01T11:54:43.004Z,75168.00
2019-05-01T11:55:42.935Z,74976.00
2019-05-01T11:56:42.917Z,76512.00
2019-05-01T11:57:42.910Z,75200.00
2019-05-01T11:58:42.897Z,75232.00
2019-05-01T11:59:42.903Z,73856.00
2019-05-01T12:00:42.875Z,69984.00
2019-05-01T12:01:42.867Z,70496.00
2019-05-01T12:02:42.851Z,73440.00
2019-05-01T12:03:42.844Z,72640.00
2019-05-01T12:04:42.844Z,70240.00
2019-05-01T12:05:42.826Z,72192.00
2019-05-01T12:06:42.810Z,72032.00
2019-05-01T12:07:42.801Z,71712.00
2019-05-01T12:08:42.785Z,72000.00
2019-05-01T12:09:42.794Z,71680.00
2019-05-01T12:10:42.765Z,73280.00
2019-05-01T12:11:42.761Z,73888.00
2019-05-01T12:12:42.742Z,74080.00
2019-05-01T12:13:44.002Z,73248.00
2019-05-01T12:14:42.735Z,72672.00
2019-05-01T12:15:42.714Z,33856.00
2019-05-01T12:16:42.699Z,74656.00
2019-05-01T12:17:42.702Z,75200.00
2019-05-01T12:18:42.679Z,75072.00
2019-05-01T12:19:42.685Z,73952.00